Time;durP1;ratioP1;P1;durP2;ratioP2;P2;SDS_P1;SDS_P2;PMS_P1;PMS_P2;Temp;Humidity;BMP_temperature;BMP_pressure;BME280_temperature;BME280_humidity;BME280_pressure;Samples;Min_cycle;Max_cycle;Signal;HPM_P1;HPM_P2
2022/11/13 00:01:35;;;;;;;;;;;;;;;7.20;100.00;99137.38;5118316;28;19968;-60
2022/11/13 00:04:02;;;;;;;;;;;;;;;7.27;100.00;99133.63;5118016;28;19959;-60
2022/11/13 00:06:29;;;;;;;;;;;;;;;7.25;100.00;99141.00;5120416;28;19924;-60
2022/11/13 00:08:55;;;;;;;;;;;;;;;7.34;100.00;99136.25;5121315;28;19931;-59
2022/11/13 00:11:21;;;;;;;;;;;;;;;7.41;100.00;99140.53;5119822;28;20022;-60
2022/11/13 00:13:48;;;;;;;;;;;;;;;7.27;100.00;99138.94;5116797;28;19950;-61
2022/11/13 00:16:15;;;;;;;;;;;;;;;7.38;100.00;99137.47;5118490;28;19946;-60
2022/11/13 00:18:42;;;;;;;;;;;;;;;7.02;100.00;99130.88;5121467;28;19995;-59
2022/11/13 00:21:12;;;;;;;;;;;;;;;6.72;100.00;99126.28;5121544;28;19966;-59
2022/11/13 00:23:39;;;;;;;;;;;;;;;7.06;100.00;99121.47;5119180;28;19955;-60
2022/11/13 00:26:06;;;;;;;;;;;;;;;7.10;100.00;99129.84;5117803;28;19988;-60
2022/11/13 00:28:32;;;;;;;;;;;;;;;7.32;100.00;99130.34;5120758;28;19999;-61
2022/11/13 00:30:59;;;;;;;;;;;;;;;7.36;100.00;99131.56;5121420;28;19928;-59
2022/11/13 00:33:25;;;;;;;;;;;;;;;7.02;100.00;99130.88;5119156;28;19945;-60
2022/11/13 00:35:52;;;;;;;;;;;;;;;6.82;100.00;99124.84;5117599;28;19924;-59
2022/11/13 00:38:20;;;;;;;;;;;;;;;6.67;100.00;99118.97;5118828;28;19931;-59
2022/11/13 00:40:46;;;;;;;;;;;;;;;6.63;100.00;99125.72;5121236;28;19955;-59
2022/11/13 00:43:12;;;;;;;;;;;;;;;6.63;100.00;99119.56;5121089;28;20323;-60
2022/11/13 00:45:39;;;;;;;;;;;;;;;6.34;100.00;99126.19;5117810;28;20022;-61
2022/11/13 00:48:05;;;;;;;;;;;;;;;6.05;100.00;99130.06;5117760;28;19931;-61
2022/11/13 00:50:31;;;;;;;;;;;;;;;5.98;100.00;99123.94;5120829;28;20011;-61
2022/11/13 00:52:58;;;;;;;;;;;;;;;5.87;100.00;99112.13;5122433;28;19980;-60
2022/11/13 00:55:25;;;;;;;;;;;;;;;5.93;100.00;99110.50;5119242;28;19995;-59
2022/11/13 00:57:52;;;;;;;;;;;;;;;5.97;100.00;99115.16;5117809;28;19951;-59
2022/11/13 01:00:18;;;;;;;;;;;;;;;6.01;100.00;99104.97;5118615;28;19924;-60
2022/11/13 01:02:45;;;;;;;;;;;;;;;6.23;100.00;99093.13;5120944;28;20310;-59
2022/11/13 01:05:11;;;;;;;;;;;;;;;6.16;100.00;99088.88;5120629;28;20011;-60
2022/11/13 01:07:38;;;;;;;;;;;;;;;6.43;100.00;99090.44;5117282;28;19931;-60
2022/11/13 01:10:04;;;;;;;;;;;;;;;6.55;100.00;99085.31;5117393;28;19992;-60
2022/11/13 01:12:32;;;;;;;;;;;;;;;6.35;100.00;99080.03;5120288;28;19928;-59
2022/11/13 01:14:59;;;;;;;;;;;;;;;6.04;100.00;99082.53;5121021;28;19955;-59
2022/11/13 01:17:26;;;;;;;;;;;;;;;5.81;100.00;99082.91;5118776;28;19923;-60
2022/11/13 01:19:52;;;;;;;;;;;;;;;6.17;100.00;99085.16;5117276;28;19991;-60
2022/11/13 01:22:18;;;;;;;;;;;;;;;6.16;100.00;99089.66;5119366;28;19920;-59
2022/11/13 01:24:45;;;;;;;;;;;;;;;6.35;100.00;99091.47;5121656;28;19943;-59
2022/11/13 01:27:12;;;;;;;;;;;;;;;6.37;100.00;99078.00;5124488;28;19989;-59
2022/11/13 01:29:39;;;;;;;;;;;;;;;6.19;100.00;99083.94;5121081;28;19993;-59
2022/11/13 01:32:06;;;;;;;;;;;;;;;6.04;100.00;99067.44;5120983;28;20039;-60
2022/11/13 01:34:32;;;;;;;;;;;;;;;6.12;100.00;99064.59;5124019;28;19968;-60
2022/11/13 01:36:58;;;;;;;;;;;;;;;5.76;100.00;99064.16;5124317;28;19928;-60
2022/11/13 01:39:25;;;;;;;;;;;;;;;5.76;100.00;99058.84;5103938;28;19923;-61
2022/11/13 01:41:51;;;;;;;;;;;;;;;5.54;100.00;99052.91;5120886;28;19924;-60
2022/11/13 01:44:18;;;;;;;;;;;;;;;5.87;100.00;99050.31;5121964;28;19991;-59
2022/11/13 01:46:48;;;;;;;;;;;;;;;6.24;100.00;99047.00;5124240;28;20555;-59
2022/11/13 01:49:25;;;;;;;;;;;;;;;6.27;100.00;99046.59;5123615;28;19962;-60
2022/11/13 01:51:54;;;;;;;;;;;;;;;6.36;100.00;99040.03;5120534;28;19960;-60
2022/11/13 01:54:22;;;;;;;;;;;;;;;6.61;100.00;99031.38;5123006;28;19988;-59
2022/11/13 01:56:48;;;;;;;;;;;;;;;6.70;100.00;99033.59;5123739;28;19987;-61
2022/11/13 01:59:17;;;;;;;;;;;;;;;6.49;100.00;99017.97;5123151;28;19951;-59
2022/11/13 02:01:44;;;;;;;;;;;;;;;6.48;100.00;99027.75;5120458;28;20011;-59
2022/11/13 02:04:11;;;;;;;;;;;;;;;6.32;100.00;99017.59;5120191;28;19971;-60
2022/11/13 02:06:40;;;;;;;;;;;;;;;6.25;100.00;99010.69;5111716;28;19984;-60
2022/11/13 02:09:08;;;;;;;;;;;;;;;6.48;100.00;99014.50;5111905;28;19934;-59
2022/11/13 02:11:34;;;;;;;;;;;;;;;6.65;100.00;99014.84;5111796;28;19924;-60
2022/11/13 02:14:00;;;;;;;;;;;;;;;6.49;100.00;99008.16;5111698;28;19931;-60
2022/11/13 02:16:27;;;;;;;;;;;;;;;6.48;100.00;99011.84;5111776;28;19924;-60
2022/11/13 02:18:53;;;;;;;;;;;;;;;6.48;100.00;99005.72;5111863;28;19995;-61
2022/11/13 02:21:27;;;;;;;;;;;;;;;6.32;100.00;99004.31;5111407;28;20055;-59
2022/11/13 02:23:58;;;;;;;;;;;;;;;6.36;100.00;98997.59;5121319;28;19956;-60
2022/11/13 02:26:27;;;;;;;;;;;;;;;6.26;100.00;98994.56;5121760;28;19988;-60
2022/11/13 02:28:53;;;;;;;;;;;;;;;6.14;100.00;98998.06;5105217;28;19959;-59
2022/11/13 02:31:20;;;;;;;;;;;;;;;5.88;100.00;98989.13;5121745;28;19924;-59
2022/11/13 02:33:46;;;;;;;;;;;;;;;5.93;100.00;98985.88;5119504;28;20554;-59
2022/11/13 02:36:13;;;;;;;;;;;;;;;5.76;100.00;98989.94;5118896;28;19934;-60
2022/11/13 02:38:40;;;;;;;;;;;;;;;5.55;100.00;98977.72;5123132;28;19987;-59
2022/11/13 02:41:07;;;;;;;;;;;;;;;5.47;100.00;98982.41;5122746;28;19919;-59
2022/11/13 02:43:34;;;;;;;;;;;;;;;5.45;100.00;98978.13;5119694;28;19987;-59
2022/11/13 02:46:01;;;;;;;;;;;;;;;5.48;100.00;98976.91;5119395;28;20011;-60
2022/11/13 02:48:27;;;;;;;;;;;;;;;5.47;100.00;98979.78;5121667;28;19972;-60
2022/11/13 02:50:53;;;;;;;;;;;;;;;5.89;100.00;98979.34;5122774;28;19958;-59
2022/11/13 02:53:20;;;;;;;;;;;;;;;5.75;100.00;98983.84;5122656;28;20010;-60
2022/11/13 02:55:46;;;;;;;;;;;;;;;6.01;100.00;98979.50;5119029;28;19987;-59
2022/11/13 02:58:12;;;;;;;;;;;;;;;6.22;100.00;98974.75;5119328;28;19980;-59
2022/11/13 03:00:40;;;;;;;;;;;;;;;6.39;100.00;98978.59;5122778;28;19988;-59
2022/11/13 03:03:06;;;;;;;;;;;;;;;6.34;100.00;98962.50;5122485;28;20147;-60
2022/11/13 03:05:33;;;;;;;;;;;;;;;6.17;100.00;98963.97;5119429;28;19931;-59
2022/11/13 03:07:59;;;;;;;;;;;;;;;6.44;100.00;98960.19;5118917;28;19992;-59
2022/11/13 03:10:25;;;;;;;;;;;;;;;6.70;100.00;98961.09;5120738;28;19988;-59
2022/11/13 03:12:52;;;;;;;;;;;;;;;6.59;100.00;98964.44;5121924;28;19919;-60
2022/11/13 03:15:18;;;;;;;;;;;;;;;6.53;100.00;98961.59;5121033;28;19928;-59
2022/11/13 03:17:46;;;;;;;;;;;;;;;6.53;100.00;98955.47;5118232;28;19955;-60
2022/11/13 03:20:12;;;;;;;;;;;;;;;6.30;100.00;98955.97;5118591;28;19980;-59
2022/11/13 03:22:38;;;;;;;;;;;;;;;6.06;100.00;98946.06;5123036;28;19959;-59
2022/11/13 03:25:05;;;;;;;;;;;;;;;6.18;100.00;98951.53;5121924;28;19983;-60
2022/11/13 03:27:32;;;;;;;;;;;;;;;6.44;100.00;98948.75;5118959;28;19951;-58
2022/11/13 03:29:58;;;;;;;;;;;;;;;6.55;100.00;98945.47;5118317;28;19967;-59
2022/11/13 03:32:25;;;;;;;;;;;;;;;6.59;100.00;98943.22;5120301;28;19942;-59
2022/11/13 03:34:52;;;;;;;;;;;;;;;6.27;100.00;98935.19;5121997;28;19930;-60
2022/11/13 03:37:19;;;;;;;;;;;;;;;6.43;100.00;98939.19;5120727;28;19954;-59
2022/11/13 03:39:45;;;;;;;;;;;;;;;6.64;100.00;98927.44;5118015;28;19924;-60
2022/11/13 03:42:11;;;;;;;;;;;;;;;6.71;100.00;98930.88;5118493;28;19992;-60
2022/11/13 03:44:38;;;;;;;;;;;;;;;6.79;100.00;98933.28;5121746;28;19995;-59
2022/11/13 03:47:04;;;;;;;;;;;;;;;6.79;100.00;98931.44;5121673;28;20055;-60
2022/11/13 03:49:30;;;;;;;;;;;;;;;6.49;100.00;98917.13;5119068;28;20335;-60
2022/11/13 03:51:58;;;;;;;;;;;;;;;6.55;100.00;98920.75;5118126;28;20011;-60
2022/11/13 03:54:24;;;;;;;;;;;;;;;6.21;100.00;98914.81;5121099;28;19980;-59
2022/11/13 03:56:51;;;;;;;;;;;;;;;6.49;100.00;98909.97;5121552;28;19978;-59
2022/11/13 03:59:17;;;;;;;;;;;;;;;6.10;100.00;98904.84;5121563;28;19991;-60
2022/11/13 04:01:43;;;;;;;;;;;;;;;5.46;100.00;98902.13;5121349;28;19970;-59
2022/11/13 04:04:10;;;;;;;;;;;;;;;5.33;100.00;98905.59;5121417;28;19924;-59
2022/11/13 04:06:36;;;;;;;;;;;;;;;4.87;100.00;98894.19;5109602;28;19924;-60
2022/11/13 04:09:04;;;;;;;;;;;;;;;4.88;100.00;98894.00;5109535;28;20403;-60
2022/11/13 04:11:30;;;;;;;;;;;;;;;5.53;100.00;98888.88;5109462;28;20087;-59
2022/11/13 04:13:56;;;;;;;;;;;;;;;5.36;100.00;98889.28;5109454;28;19988;-59
2022/11/13 04:16:23;;;;;;;;;;;;;;;5.57;100.00;98882.16;5109445;28;19952;-60
2022/11/13 04:18:49;;;;;;;;;;;;;;;5.21;100.00;98875.44;5109290;28;19971;-59
2022/11/13 04:21:15;;;;;;;;;;;;;;;5.65;100.00;98879.25;5109144;28;19987;-60
2022/11/13 04:23:42;;;;;;;;;;;;;;;5.59;100.00;98872.13;5118855;28;20003;-59
2022/11/13 04:26:09;;;;;;;;;;;;;;;5.11;100.00;98874.22;5117971;28;19974;-58
2022/11/13 04:28:35;;;;;;;;;;;;;;;4.91;100.00;98868.94;5121357;28;19924;-58
2022/11/13 04:31:02;;;;;;;;;;;;;;;5.04;100.00;98871.59;5121309;28;19974;-59
2022/11/13 04:33:28;;;;;;;;;;;;;;;4.57;100.00;98863.81;5119097;28;19987;-59
2022/11/13 04:35:54;;;;;;;;;;;;;;;4.33;100.00;98859.91;5117684;28;19924;-60
2022/11/13 04:38:21;;;;;;;;;;;;;;;4.37;100.00;98863.78;5119054;28;20000;-60
2022/11/13 04:40:49;;;;;;;;;;;;;;;4.41;100.00;98864.19;5121073;28;19934;-60
2022/11/13 04:43:16;;;;;;;;;;;;;;;4.43;100.00;98867.44;5120548;28;19987;-60
2022/11/13 04:45:42;;;;;;;;;;;;;;;4.52;100.00;98858.34;5117378;28;20417;-59
2022/11/13 04:48:08;;;;;;;;;;;;;;;4.94;100.00;98857.13;5117757;28;19991;-60
2022/11/13 04:50:35;;;;;;;;;;;;;;;4.89;100.00;98841.84;5120756;28;19970;-59
2022/11/13 04:53:01;;;;;;;;;;;;;;;4.78;100.00;98845.13;5122676;28;19980;-59
2022/11/13 04:55:27;;;;;;;;;;;;;;;4.26;100.00;98838.75;5119604;28;19919;-59
2022/11/13 04:57:54;;;;;;;;;;;;;;;4.24;100.00;98835.47;5099754;28;19995;-59
2022/11/13 05:00:22;;;;;;;;;;;;;;;4.29;100.00;98833.06;5120709;28;19935;-59
2022/11/13 05:02:48;;;;;;;;;;;;;;;4.19;100.00;98840.56;5124996;28;19938;-59
2022/11/13 05:05:15;;;;;;;;;;;;;;;4.27;100.00;98843.00;5124253;28;19923;-59
2022/11/13 05:07:42;;;;;;;;;;;;;;;4.37;100.00;98845.25;5121342;28;19928;-59
2022/11/13 05:10:08;;;;;;;;;;;;;;;5.22;100.00;98845.31;5128413;28;19923;-59
2022/11/13 05:12:35;;;;;;;;;;;;;;;5.56;100.00;98851.34;5121598;28;19935;-60
2022/11/13 05:15:01;;;;;;;;;;;;;;;5.74;100.00;98854.97;5121412;28;19928;-59
2022/11/13 05:17:29;;;;;;;;;;;;;;;5.92;100.00;98863.09;5123701;28;19952;-60
2022/11/13 05:19:55;;;;;;;;;;;;;;;5.44;100.00;98849.34;5124706;28;20018;-59
2022/11/13 05:22:21;;;;;;;;;;;;;;;5.25;100.00;98844.91;5124398;28;19995;-60
2022/11/13 05:24:47;;;;;;;;;;;;;;;5.30;100.00;98837.16;5124551;28;19975;-60
2022/11/13 05:27:14;;;;;;;;;;;;;;;4.84;100.00;98841.66;5124067;28;19963;-59
2022/11/13 05:29:40;;;;;;;;;;;;;;;4.62;100.00;98821.69;5120879;28;19924;-59
2022/11/13 05:32:07;;;;;;;;;;;;;;;4.17;100.00;98824.09;5120924;28;19924;-59
2022/11/13 05:34:34;;;;;;;;;;;;;;;3.83;100.00;98815.44;5123860;28;19959;-60
2022/11/13 05:37:00;;;;;;;;;;;;;;;3.84;100.00;98817.84;5124242;28;20018;-59
2022/11/13 05:39:27;;;;;;;;;;;;;;;4.79;100.00;98833.53;5121461;28;20023;-60
2022/11/13 05:41:53;;;;;;;;;;;;;;;5.42;100.00;98843.44;5120284;28;19924;-61
2022/11/13 05:44:20;;;;;;;;;;;;;;;5.56;100.00;98843.41;5121876;28;19927;-60
2022/11/13 05:46:46;;;;;;;;;;;;;;;5.61;100.00;98833.81;5105913;28;19924;-59
2022/11/13 05:49:12;;;;;;;;;;;;;;;5.27;100.00;98826.13;5123823;28;19959;-60
2022/11/13 05:51:40;;;;;;;;;;;;;;;4.77;100.00;98817.03;5120610;28;19963;-59
2022/11/13 05:54:06;;;;;;;;;;;;;;;5.44;100.00;98817.56;5121569;28;20027;-59
2022/11/13 05:56:34;;;;;;;;;;;;;;;5.37;100.00;98822.06;5123396;28;19958;-59
2022/11/13 05:59:01;;;;;;;;;;;;;;;5.21;100.00;98811.91;5123861;28;19931;-60
2022/11/13 06:01:28;;;;;;;;;;;;;;;4.88;100.00;98824.38;5121378;28;19920;-59
2022/11/13 06:03:55;;;;;;;;;;;;;;;5.03;100.00;98817.03;5120225;28;19931;-59
2022/11/13 06:06:22;;;;;;;;;;;;;;;5.11;100.00;98835.31;5121934;28;20732;-59
2022/11/13 06:08:50;;;;;;;;;;;;;;;4.63;100.00;98826.81;5123684;28;19959;-60
2022/11/13 06:11:17;;;;;;;;;;;;;;;5.33;100.00;98830.63;5122981;28;19977;-59
2022/11/13 06:13:44;;;;;;;;;;;;;;;5.39;100.00;98809.41;5120089;28;19924;-59
2022/11/13 06:16:11;;;;;;;;;;;;;;;5.08;100.00;98816.38;5120174;28;20371;-60
2022/11/13 06:18:38;;;;;;;;;;;;;;;4.69;100.00;98812.75;5120442;28;19991;-59
2022/11/13 06:21:06;;;;;;;;;;;;;;;4.87;100.00;98820.06;5120272;28;20086;-59
2022/11/13 06:23:34;;;;;;;;;;;;;;;5.10;100.00;98820.47;5128573;28;19996;-59
2022/11/13 06:26:02;;;;;;;;;;;;;;;5.06;100.00;98824.56;5120342;28;19979;-60
2022/11/13 06:28:29;;;;;;;;;;;;;;;5.17;100.00;98815.19;5122782;28;19924;-59
2022/11/13 06:30:55;;;;;;;;;;;;;;;5.47;100.00;98815.50;5123570;28;19931;-59
2022/11/13 06:33:21;;;;;;;;;;;;;;;5.37;100.00;98814.13;5122095;28;19961;-59
2022/11/13 06:35:48;;;;;;;;;;;;;;;5.19;100.00;98798.06;5119962;28;19984;-59
2022/11/13 06:38:14;;;;;;;;;;;;;;;5.63;100.00;98799.94;5120388;28;20003;-60
2022/11/13 06:40:40;;;;;;;;;;;;;;;5.79;100.00;98802.13;5123409;28;19967;-59
2022/11/13 06:43:08;;;;;;;;;;;;;;;5.56;100.00;98798.38;5123420;28;19942;-59
2022/11/13 06:45:35;;;;;;;;;;;;;;;5.23;100.00;98785.22;5120216;28;20644;-59
2022/11/13 06:48:01;;;;;;;;;;;;;;;5.13;100.00;98785.66;5120038;28;19968;-59
2022/11/13 06:50:27;;;;;;;;;;;;;;;4.81;100.00;98783.84;5122032;28;20090;-58
2022/11/13 06:52:54;;;;;;;;;;;;;;;5.49;100.00;98781.66;5124562;28;19967;-59
2022/11/13 06:55:20;;;;;;;;;;;;;;;5.58;100.00;98770.63;5121974;28;19987;-58
2022/11/13 06:57:46;;;;;;;;;;;;;;;5.59;100.00;98771.44;5119886;28;20000;-59
2022/11/13 07:00:15;;;;;;;;;;;;;;;5.74;100.00;98780.75;5119809;28;19930;-60
2022/11/13 07:02:41;;;;;;;;;;;;;;;5.77;100.00;98780.34;5122910;28;19994;-59
2022/11/13 07:05:08;;;;;;;;;;;;;;;6.00;100.00;98779.88;5123044;28;19945;-59
2022/11/13 07:07:34;;;;;;;;;;;;;;;5.75;100.00;98771.78;5119543;28;19924;-59
2022/11/13 07:10:00;;;;;;;;;;;;;;;5.65;100.00;98781.22;5119342;28;19928;-59
2022/11/13 07:12:27;;;;;;;;;;;;;;;5.34;100.00;98766.84;5121439;28;19955;-59
2022/11/13 07:14:54;;;;;;;;;;;;;;;5.43;100.00;98757.66;5104303;28;19966;-59
2022/11/13 07:17:21;;;;;;;;;;;;;;;5.44;100.00;98755.81;5121604;28;19924;-59
2022/11/13 07:19:48;;;;;;;;;;;;;;;5.74;100.00;98748.97;5119185;28;19996;-59
2022/11/13 07:22:14;;;;;;;;;;;;;;;5.59;100.00;98743.13;5120034;28;19924;-59
2022/11/13 07:24:41;;;;;;;;;;;;;;;5.40;100.00;98736.06;5122481;28;19927;-59
2022/11/13 07:27:08;;;;;;;;;;;;;;;5.47;100.00;98730.75;5122566;28;19934;-59
2022/11/13 07:29:35;;;;;;;;;;;;;;;5.23;100.00;98725.09;5119287;28;19924;-60
2022/11/13 07:32:01;;;;;;;;;;;;;;;5.15;100.00;98706.81;5119027;28;19935;-60
2022/11/13 07:34:29;;;;;;;;;;;;;;;5.15;100.00;98693.56;5121398;28;20427;-59
2022/11/13 07:36:55;;;;;;;;;;;;;;;5.23;100.00;98701.28;5122159;28;19954;-59
2022/11/13 07:39:21;;;;;;;;;;;;;;;5.12;100.00;98699.28;5102650;28;20043;-59
2022/11/13 07:41:48;;;;;;;;;;;;;;;4.69;100.00;98684.94;5118428;28;19959;-59
2022/11/13 07:44:14;;;;;;;;;;;;;;;4.89;100.00;98688.34;5119274;28;19924;-59
2022/11/13 07:46:40;;;;;;;;;;;;;;;4.87;100.00;98685.09;5122211;28;19967;-59
2022/11/13 07:49:07;;;;;;;;;;;;;;;4.77;100.00;98684.72;5122188;28;19958;-60
2022/11/13 07:51:34;;;;;;;;;;;;;;;5.21;100.00;98684.78;5119341;28;19973;-60
2022/11/13 07:54:01;;;;;;;;;;;;;;;5.29;100.00;98681.91;5119902;28;19924;-59
2022/11/13 07:56:27;;;;;;;;;;;;;;;5.03;100.00;98682.00;5120590;28;19955;-60
2022/11/13 07:58:53;;;;;;;;;;;;;;;5.10;100.00;98682.81;5122004;28;19987;-60
2022/11/13 08:01:19;;;;;;;;;;;;;;;5.18;100.00;98677.25;5120636;28;20042;-59
2022/11/13 08:03:46;;;;;;;;;;;;;;;5.43;100.00;98682.66;5118298;28;19967;-60
2022/11/13 08:06:12;;;;;;;;;;;;;;;5.33;100.00;98669.88;5118130;28;19924;-60
2022/11/13 08:08:40;;;;;;;;;;;;;;;5.27;100.00;98668.06;5121797;28;19979;-60
2022/11/13 08:11:07;;;;;;;;;;;;;;;5.29;100.00;98675.81;5121739;28;19991;-59
2022/11/13 08:13:34;;;;;;;;;;;;;;;5.39;100.00;98676.97;5118428;28;19934;-59
2022/11/13 08:16:01;;;;;;;;;;;;;;;5.49;100.00;98678.34;5118177;28;19930;-59
2022/11/13 08:18:27;;;;;;;;;;;;;;;5.44;100.00;98674.50;5120331;28;19924;-59
2022/11/13 08:20:53;;;;;;;;;;;;;;;5.18;100.00;98665.84;5121371;28;19995;-59
2022/11/13 08:23:20;;;;;;;;;;;;;;;5.38;100.00;98672.69;5121753;28;19943;-60
2022/11/13 08:25:47;;;;;;;;;;;;;;;5.43;100.00;98678.19;5118135;28;19958;-60
2022/11/13 08:28:14;;;;;;;;;;;;;;;5.59;100.00;98670.75;5118456;28;19924;-60
2022/11/13 08:30:42;;;;;;;;;;;;;;;5.83;100.00;98681.41;5121342;28;19924;-60
2022/11/13 08:33:08;;;;;;;;;;;;;;;5.87;100.00;98689.78;5121623;28;19971;-59
2022/11/13 08:35:35;;;;;;;;;;;;;;;5.95;100.00;98687.69;5120493;28;19927;-59
2022/11/13 08:38:01;;;;;;;;;;;;;;;6.03;100.00;98691.94;5122342;28;19988;-60
2022/11/13 08:40:28;;;;;;;;;;;;;;;6.12;100.00;98698.59;5124414;28;20006;-58
2022/11/13 08:42:59;;;;;;;;;;;;;;;6.15;100.00;98694.69;5125730;28;19963;-59
2022/11/13 08:45:26;;;;;;;;;;;;;;;6.18;100.00;98699.56;5123770;28;20330;-59
2022/11/13 08:47:52;;;;;;;;;;;;;;;6.14;100.00;98703.66;5121949;28;20019;-60
2022/11/13 08:50:18;;;;;;;;;;;;;;;6.04;100.00;98709.44;5123042;28;19987;-60
2022/11/13 08:52:45;;;;;;;;;;;;;;;6.05;100.00;98710.25;5126837;28;19963;-59
2022/11/13 08:55:11;;;;;;;;;;;;;;;6.18;100.00;98707.53;5125289;28;19934;-59
2022/11/13 08:57:39;;;;;;;;;;;;;;;6.20;100.00;98716.88;5113741;28;19979;-60
2022/11/13 09:00:07;;;;;;;;;;;;;;;6.26;100.00;98716.03;5113258;28;19928;-60
2022/11/13 09:02:34;;;;;;;;;;;;;;;6.27;100.00;98722.16;5113387;28;19928;-61
2022/11/13 09:05:00;;;;;;;;;;;;;;;6.25;100.00;98714.38;5113636;28;20408;-59
2022/11/13 09:07:26;;;;;;;;;;;;;;;6.22;100.00;98716.69;5113512;28;20028;-60
2022/11/13 09:09:52;;;;;;;;;;;;;;;6.34;100.00;98717.63;5113099;28;20017;-60
2022/11/13 09:12:19;;;;;;;;;;;;;;;6.36;100.00;98716.38;5113165;28;19979;-60
2022/11/13 09:14:45;;;;;;;;;;;;;;;6.35;100.00;98720.03;5113166;28;19924;-60
2022/11/13 09:17:13;;;;;;;;;;;;;;;6.29;100.00;98709.47;5113249;28;19998;-59
2022/11/13 09:19:39;;;;;;;;;;;;;;;6.31;100.00;98716.19;5121778;28;19924;-59
2022/11/13 09:22:06;;;;;;;;;;;;;;;6.20;100.00;98713.41;5121749;28;19924;-60
2022/11/13 09:24:32;;;;;;;;;;;;;;;6.28;100.00;98710.53;5124902;28;19932;-59
2022/11/13 09:26:58;;;;;;;;;;;;;;;6.32;100.00;98693.94;5124840;28;20471;-60
2022/11/13 09:29:27;;;;;;;;;;;;;;;6.33;100.00;98708.03;5122997;28;20023;-59
2022/11/13 09:31:53;;;;;;;;;;;;;;;6.14;100.00;98701.84;5121272;28;19953;-59
2022/11/13 09:34:21;;;;;;;;;;;;;;;6.06;100.00;98704.75;5122568;28;19955;-60
2022/11/13 09:36:47;;;;;;;;;;;;;;;6.14;100.00;98701.03;5124722;28;20019;-60
2022/11/13 09:39:14;;;;;;;;;;;;;;;6.11;100.00;98699.63;5124287;28;19973;-60
2022/11/13 09:41:43;;;;;;;;;;;;;;;6.16;100.00;98704.28;5121083;28;19959;-60
2022/11/13 09:44:13;;;;;;;;;;;;;;;6.10;100.00;98700.63;5121215;28;19995;-58
2022/11/13 09:46:42;;;;;;;;;;;;;;;5.93;100.00;98705.66;5120607;28;20002;-59
2022/11/13 09:49:14;;;;;;;;;;;;;;;5.90;100.00;98700.78;5121091;28;19932;-60
2022/11/13 09:51:50;;;;;;;;;;;;;;;5.93;100.00;98696.88;5112596;28;19938;-61
2022/11/13 09:54:17;;;;;;;;;;;;;;;6.05;100.00;98697.00;5122787;28;19983;-59
2022/11/13 09:56:46;;;;;;;;;;;;;;;6.12;100.00;98676.56;5124230;28;19980;-59
2022/11/13 09:59:18;;;;;;;;;;;;;;;6.23;100.00;98679.31;5124051;28;19991;-60
2022/11/13 10:01:49;;;;;;;;;;;;;;;6.16;100.00;98672.47;5120443;28;19920;-60
2022/11/13 10:04:19;;;;;;;;;;;;;;;6.08;100.00;98686.78;5120959;28;19920;-59
2022/11/13 10:06:54;;;;;;;;;;;;;;;6.18;100.00;98673.06;5124146;28;19931;-60
2022/11/13 10:09:24;;;;;;;;;;;;;;;6.24;100.00;98657.09;5122867;28;19995;-60
2022/11/13 10:11:54;;;;;;;;;;;;;;;6.26;100.00;98659.50;5120747;28;20043;-61
2022/11/13 10:14:23;;;;;;;;;;;;;;;6.38;100.00;98647.16;5122004;28;19924;-60
2022/11/13 10:16:52;;;;;;;;;;;;;;;6.51;100.00;98642.56;5124074;28;19984;-59
2022/11/13 10:19:23;;;;;;;;;;;;;;;6.56;100.00;98635.78;5123290;28;19924;-58
2022/11/13 10:21:53;;;;;;;;;;;;;;;6.57;100.00;98635.53;5120476;28;19974;-60
2022/11/13 10:24:24;;;;;;;;;;;;;;;6.60;100.00;98631.63;5122988;28;19975;-59
2022/11/13 10:26:50;;;;;;;;;;;;;;;6.74;100.00;98627.84;5123923;28;19979;-59
2022/11/13 10:29:18;;;;;;;;;;;;;;;6.81;100.00;98623.25;5123213;28;19979;-61
2022/11/13 10:31:45;;;;;;;;;;;;;;;6.80;100.00;98622.47;5120331;28;19980;-60
2022/11/13 10:34:12;;;;;;;;;;;;;;;6.79;100.00;98620.00;5120130;28;20004;-60
2022/11/13 10:36:42;;;;;;;;;;;;;;;6.80;100.00;98625.09;5120014;28;19964;-60
2022/11/13 10:39:10;;;;;;;;;;;;;;;6.97;100.00;98607.53;5119967;28;19967;-61
2022/11/13 10:41:45;;;;;;;;;;;;;;;7.02;100.00;98601.56;5123198;28;20000;-59
2022/11/13 10:44:19;;;;;;;;;;;;;;;7.04;100.00;98580.91;5123393;28;20010;-60
2022/11/13 10:46:45;;;;;;;;;;;;;;;7.15;100.00;98577.47;5111632;28;19954;-62
2022/11/13 10:49:12;;;;;;;;;;;;;;;7.18;100.00;98566.41;5111424;28;20204;-61
2022/11/13 10:51:39;;;;;;;;;;;;;;;7.30;100.00;98553.19;5115096;28;19980;-62
2022/11/13 10:54:19;;;;;;;;;;;;;;;7.32;100.00;98557.22;5124230;28;19924;-60
2022/11/13 10:56:55;;;;;;;;;;;;;;;7.36;100.00;98550.44;5110908;28;19986;-59
2022/11/13 10:59:22;;;;;;;;;;;;;;;7.48;100.00;98540.66;5110853;28;19931;-61
2022/11/13 11:01:48;;;;;;;;;;;;;;;7.60;100.00;98528.19;5111011;28;19963;-61
2022/11/13 11:04:20;;;;;;;;;;;;;;;7.69;100.00;98527.84;5110921;28;19991;-60
2022/11/13 11:06:46;;;;;;;;;;;;;;;7.79;100.00;98520.13;5110976;28;20004;-60
2022/11/13 11:09:20;;;;;;;;;;;;;;;7.61;100.00;98508.53;5111011;28;19992;-60
2022/11/13 11:12:15;;;;;;;;;;;;;;;7.87;100.00;98509.94;5110785;28;20047;-61
2022/11/13 11:14:44;;;;;;;;;;;;;;;8.05;100.00;98509.81;5110932;28;19924;-60
2022/11/13 11:17:14;;;;;;;;;;;;;;;8.32;100.00;98504.88;5111072;28;19951;-61
2022/11/13 11:19:41;;;;;;;;;;;;;;;8.46;100.00;98510.75;5119297;28;19967;-60
2022/11/13 11:22:10;;;;;;;;;;;;;;;8.67;100.00;98505.59;5119997;28;19987;-61
2022/11/13 11:24:42;;;;;;;;;;;;;;;8.77;100.00;98490.84;5123009;28;19989;-59
2022/11/13 11:27:12;;;;;;;;;;;;;;;9.02;100.00;98494.81;5122590;28;19971;-60
2022/11/13 11:29:41;;;;;;;;;;;;;;;9.12;100.00;98492.34;5119184;28;20346;-60
2022/11/13 11:32:11;;;;;;;;;;;;;;;9.30;100.00;98483.31;5119235;28;19991;-61
2022/11/13 11:34:40;;;;;;;;;;;;;;;9.34;100.00;98476.47;5110411;28;19924;-61
2022/11/13 11:37:12;;;;;;;;;;;;;;;9.29;100.00;98468.38;5110718;28;20482;-60
2022/11/13 11:39:43;;;;;;;;;;;;;;;9.27;100.00;98459.00;5118916;28;19925;-60
2022/11/13 11:42:19;;;;;;;;;;;;;;;9.43;100.00;98458.22;5119013;28;20022;-60
2022/11/13 11:44:52;;;;;;;;;;;;;;;9.63;100.00;98461.19;5118886;28;19955;-61
2022/11/13 11:47:18;;;;;;;;;;;;;;;9.65;100.00;98462.59;5119922;28;19991;-59
2022/11/13 11:49:47;;;;;;;;;;;;;;;9.78;100.00;98453.41;5121615;28;21433;-61
2022/11/13 11:52:21;;;;;;;;;;;;;;;9.97;100.00;98451.28;5122262;28;19991;-61
2022/11/13 11:54:53;;;;;;;;;;;;;;;9.91;100.00;98444.25;5122264;28;19984;-60
2022/11/13 11:57:29;;;;;;;;;;;;;;;10.03;100.00;98445.78;5121149;28;20590;-61
2022/11/13 12:00:01;;;;;;;;;;;;;;;10.08;100.00;98450.41;5118513;28;20003;-60
2022/11/13 12:02:36;;;;;;;;;;;;;;;10.11;100.00;98450.72;5120559;28;19984;-59
2022/11/13 12:05:17;;;;;;;;;;;;;;;10.23;100.00;98429.28;5121818;28;19927;-62
2022/11/13 12:07:46;;;;;;;;;;;;;;;10.26;100.00;98426.91;5109948;28;19992;-60
2022/11/13 12:10:22;;;;;;;;;;;;;;;10.38;100.00;98418.78;5109676;28;19935;-60
2022/11/13 12:12:55;;;;;;;;;;;;;;;10.46;100.00;98421.00;5109898;28;19924;-60
2022/11/13 12:15:29;;;;;;;;;;;;;;;10.50;100.00;98416.78;5109828;28;19971;-60
2022/11/13 12:18:02;;;;;;;;;;;;;;;10.57;100.00;98417.41;5109535;28;19935;-60
2022/11/13 12:20:33;;;;;;;;;;;;;;;10.71;100.00;98418.59;5109779;28;19988;-60
2022/11/13 12:23:04;;;;;;;;;;;;;;;10.68;100.00;98419.09;5117761;28;19975;-61
2022/11/13 12:25:33;;;;;;;;;;;;;;;10.65;100.00;98402.78;5118989;28;20496;-61
2022/11/13 12:28:05;;;;;;;;;;;;;;;10.62;100.00;98408.63;5117916;28;19984;-60
2022/11/13 12:30:37;;;;;;;;;;;;;;;10.62;100.00;98411.28;5120771;28;19991;-59
2022/11/13 12:33:09;;;;;;;;;;;;;;;10.54;100.00;98406.41;5121703;28;19927;-60
2022/11/13 12:35:36;;;;;;;;;;;;;;;10.20;100.00;98405.75;5118302;28;20014;-60
2022/11/13 12:38:08;;;;;;;;;;;;;;;10.26;100.00;98394.06;5118131;28;19992;-60
2022/11/13 12:40:38;;;;;;;;;;;;;;;10.37;100.00;98400.34;5121248;28;19958;-60
2022/11/13 12:43:19;;;;;;;;;;;;;;;10.58;100.00;98389.63;5121732;28;19931;-61
2022/11/13 12:45:50;;;;;;;;;;;;;;;10.65;100.00;98390.22;5116650;28;19992;-60
2022/11/13 12:48:27;;;;;;;;;;;;;;;10.66;100.00;98388.38;5118315;28;19928;-61